East Haven, Indiana
Current Conditions -  °F | °C
As of 8:55 PM on Monday 20 Oct 2014 (Local Time) from KVES Reporting Station
Haze Haze  
Wind Chill: 50°   Ceiling: 7000
Heat Index: 50°   Visibility: 5mi
Dew Point: 50°   Wind: 3mph
Humidity: 100%   Direction: 270°W
Pressure: 29.87"   Gusts: NA
Location:  39.8311°N, 84.8879°W
Report Text: KVES 210055Z AUTO 27003KT 5SM BR BKN070 10/10 A2987 RMK AO2
Loading
Personal Weather Stations






























Interactive Weather Map
Tropical Storm Tracking
New forecast layout! Learn more

10-Day Weather Forecast

Advertisements
Track Severe Weather on mobile